Time;durP1;ratioP1;P1;durP2;ratioP2;P2;SDS_P1;SDS_P2;PMS_P1;PMS_P2;Temp;Humidity;BMP_temperature;BMP_pressure;BME280_temperature;BME280_humidity;BME280_pressure;Samples;Min_cycle;Max_cycle;Signal;HPM_P1;HPM_P2
2023/01/24 00:01:13;;;;;;;;;;;3.00;99.90;;;;;;5124853;27;19927;-82
2023/01/24 00:03:38;;;;;;;;;;;3.00;99.90;;;;;;5116126;28;19954;-82
2023/01/24 00:06:04;;;;;;;;;;;3.00;99.90;;;;;;5106820;27;19968;-82
2023/01/24 00:08:30;;;;;;;;;;;2.90;99.90;;;;;;5106423;27;19972;-82
2023/01/24 00:10:59;;;;;;;;;;;3.00;99.90;;;;;;5107117;27;19999;-82
2023/01/24 00:13:25;;;;;;;;;;;3.00;99.90;;;;;;5107133;27;19928;-82
2023/01/24 00:15:51;;;;;;;;;;;2.90;99.90;;;;;;5126132;27;20544;-82
2023/01/24 00:18:16;;;;;;;;;;;3.00;99.90;;;;;;5128359;27;20040;-82
2023/01/24 00:20:42;;;;;;;;;;;2.90;99.90;;;;;;5108066;27;19953;-82
2023/01/24 00:23:07;;;;;;;;;;;3.00;99.90;;;;;;5128561;27;19972;-82
2023/01/24 00:25:33;;;;;;;;;;;3.00;99.90;;;;;;5119833;28;19924;-82
2023/01/24 00:27:58;;;;;;;;;;;2.90;99.90;;;;;;5130002;27;19967;-82
2023/01/24 00:30:24;;;;;;;;;;;2.90;99.90;;;;;;5126224;27;19924;-82
2023/01/24 00:32:49;;;;;;;;;;;2.90;99.90;;;;;;5113992;27;19987;-82
2023/01/24 00:35:15;;;;;;;;;;;2.90;99.90;;;;;;5099709;27;19931;-82
2023/01/24 00:37:41;;;;;;;;;;;2.90;99.90;;;;;;5125155;27;19962;-82
2023/01/24 00:40:07;;;;;;;;;;;2.80;99.90;;;;;;5114565;27;20392;-82
2023/01/24 00:42:33;;;;;;;;;;;2.90;99.90;;;;;;5128781;27;19986;-82
2023/01/24 00:44:59;;;;;;;;;;;2.90;99.90;;;;;;5091513;28;19924;-82
2023/01/24 00:47:25;;;;;;;;;;;2.90;99.90;;;;;;5125740;27;19923;-82
2023/01/24 00:49:50;;;;;;;;;;;2.90;99.90;;;;;;5140652;27;19923;-82
2023/01/24 00:52:16;;;;;;;;;;;2.90;99.90;;;;;;5123172;27;20018;-82
2023/01/24 00:54:41;;;;;;;;;;;2.90;99.90;;;;;;5109485;28;19927;-81
2023/01/24 00:57:07;;;;;;;;;;;2.90;99.90;;;;;;5106639;27;19975;-81
2023/01/24 00:59:32;;;;;;;;;;;2.90;99.90;;;;;;5120532;27;19923;-82
2023/01/24 01:01:58;;;;;;;;;;;2.90;99.90;;;;;;5122987;27;19927;-81
2023/01/24 01:04:23;;;;;;;;;;;2.90;99.90;;;;;;5105501;27;19934;-81
2023/01/24 01:06:49;;;;;;;;;;;2.90;99.90;;;;;;5100273;28;19923;-82
2023/01/24 01:09:15;;;;;;;;;;;2.90;99.90;;;;;;5098927;28;19987;-82
2023/01/24 01:11:41;;;;;;;;;;;2.90;99.90;;;;;;5107660;27;19924;-82
2023/01/24 01:14:07;;;;;;;;;;;2.90;99.90;;;;;;5120226;27;19924;-81
2023/01/24 01:16:37;;;;;;;;;;;2.90;99.90;;;;;;5121349;27;19924;-82
2023/01/24 01:19:03;;;;;;;;;;;2.90;99.90;;;;;;5122922;27;19924;-82
2023/01/24 01:21:29;;;;;;;;;;;3.00;99.90;;;;;;5120535;27;19938;-82
2023/01/24 01:23:54;;;;;;;;;;;3.00;99.90;;;;;;5099884;27;19923;-82
2023/01/24 01:26:20;;;;;;;;;;;3.00;99.90;;;;;;5105241;27;19923;-82
2023/01/24 01:28:46;;;;;;;;;;;3.00;99.90;;;;;;5119491;27;19967;-82
2023/01/24 01:31:12;;;;;;;;;;;3.00;99.90;;;;;;5120916;27;19976;-82
2023/01/24 01:33:37;;;;;;;;;;;3.00;99.90;;;;;;5120219;27;20384;-82
2023/01/24 01:36:03;;;;;;;;;;;3.00;99.90;;;;;;5104541;27;19948;-82
2023/01/24 01:38:29;;;;;;;;;;;3.00;99.90;;;;;;5097951;28;20144;-82
2023/01/24 01:40:56;;;;;;;;;;;3.00;99.90;;;;;;5119407;27;20353;-82
2023/01/24 01:43:22;;;;;;;;;;;3.00;99.90;;;;;;5120585;27;19934;-82
2023/01/24 01:45:49;;;;;;;;;;;3.00;99.90;;;;;;5096185;27;20047;-83
2023/01/24 01:48:33;;;;;;;;;;;2.90;99.90;;;;;;5123061;27;19928;-82
2023/01/24 01:50:59;;;;;;;;;;;3.00;99.90;;;;;;5111907;27;19935;-82
2023/01/24 01:53:26;;;;;;;;;;;2.90;99.90;;;;;;5117903;27;19924;-82
2023/01/24 01:55:55;;;;;;;;;;;3.00;99.90;;;;;;5102973;28;19928;-82
2023/01/24 01:58:21;;;;;;;;;;;3.00;99.90;;;;;;5121205;28;19927;-82
2023/01/24 02:00:50;;;;;;;;;;;3.00;99.90;;;;;;5097639;28;19963;-81
2023/01/24 02:06:03;;;;;;;;;;;3.10;99.90;;;;;;5140596;28;19927;-82
2023/01/24 02:08:29;;;;;;;;;;;3.00;99.90;;;;;;5103455;28;20591;-82
2023/01/24 02:13:43;;;;;;;;;;;3.00;99.90;;;;;;5101696;28;19928;-82
2023/01/24 02:16:12;;;;;;;;;;;3.10;99.90;;;;;;5136777;28;19923;-82
2023/01/24 02:18:39;;;;;;;;;;;3.10;99.90;;;;;;5122685;28;19931;-82
2023/01/24 02:21:07;;;;;;;;;;;3.10;99.90;;;;;;5120301;28;19923;-81
2023/01/24 02:23:38;;;;;;;;;;;3.10;99.90;;;;;;5103161;28;19928;-82
2023/01/24 02:26:06;;;;;;;;;;;3.10;99.90;;;;;;5094772;28;19970;-82
2023/01/24 02:28:32;;;;;;;;;;;3.10;99.90;;;;;;5097388;28;19995;-82
2023/01/24 02:30:59;;;;;;;;;;;3.10;99.90;;;;;;5114913;28;19989;-82
2023/01/24 02:33:24;;;;;;;;;;;3.10;99.90;;;;;;5118564;28;19923;-82
2023/01/24 02:35:50;;;;;;;;;;;3.10;99.90;;;;;;5119652;28;19924;-82
2023/01/24 02:38:17;;;;;;;;;;;3.10;99.90;;;;;;5095201;28;19927;-82
2023/01/24 02:40:43;;;;;;;;;;;3.10;99.90;;;;;;5094118;28;19939;-82
2023/01/24 02:43:11;;;;;;;;;;;3.10;99.90;;;;;;5136769;27;19927;-82
2023/01/24 02:45:36;;;;;;;;;;;3.10;99.90;;;;;;5111014;28;19923;-82
2023/01/24 02:48:02;;;;;;;;;;;3.10;99.90;;;;;;5107255;28;19934;-82
2023/01/24 02:50:28;;;;;;;;;;;3.10;99.90;;;;;;5120274;28;19924;-82
2023/01/24 02:58:05;;;;;;;;;;;3.10;99.90;;;;;;5117973;28;19927;-82
2023/01/24 02:58:24;;;;;;;;;;;3.10;99.90;;;;;;5114945;28;19977;-82
2023/01/24 03:00:50;;;;;;;;;;;3.10;99.90;;;;;;5118545;28;19924;-82
2023/01/24 03:03:15;;;;;;;;;;;3.10;99.90;;;;;;5103584;28;20115;-82
2023/01/24 03:06:02;;;;;;;;;;;3.10;99.90;;;;;;5113930;28;19924;-82
2023/01/24 03:08:29;;;;;;;;;;;3.10;99.90;;;;;;5122535;27;19931;-82
2023/01/24 03:10:55;;;;;;;;;;;3.10;99.90;;;;;;5124917;27;19923;-82
2023/01/24 03:35:17;;;;;;;;;;;3.00;99.90;;;;;;5113110;27;19946;-82
2023/01/24 03:40:27;;;;;;;;;;;3.00;99.90;;;;;;5109789;27;19927;-83
2023/01/24 03:42:52;;;;;;;;;;;3.00;99.90;;;;;;5104065;27;19923;-82
2023/01/24 03:45:19;;;;;;;;;;;3.00;99.90;;;;;;5107359;27;20471;-82
2023/01/24 03:47:54;;;;;;;;;;;3.00;99.90;;;;;;5123870;27;19923;-82
2023/01/24 03:53:07;;;;;;;;;;;3.00;99.90;;;;;;5124682;27;19979;-82
2023/01/24 03:55:33;;;;;;;;;;;2.90;99.90;;;;;;5109283;27;19928;-82
2023/01/24 03:57:59;;;;;;;;;;;3.00;99.90;;;;;;5121209;27;19977;-82
2023/01/24 04:00:24;;;;;;;;;;;2.90;99.90;;;;;;5089822;28;19923;-82
2023/01/24 04:02:50;;;;;;;;;;;2.90;99.90;;;;;;5106082;27;19924;-82
2023/01/24 04:05:15;;;;;;;;;;;2.90;99.90;;;;;;5124760;27;19923;-82
2023/01/24 04:07:41;;;;;;;;;;;2.90;99.90;;;;;;5120531;27;19923;-82
2023/01/24 04:10:08;;;;;;;;;;;2.90;99.90;;;;;;5104005;28;19930;-82
2023/01/24 04:12:33;;;;;;;;;;;2.90;99.90;;;;;;5132310;27;19948;-82
2023/01/24 04:14:59;;;;;;;;;;;2.90;99.90;;;;;;5083937;27;19923;-82
2023/01/24 04:17:24;;;;;;;;;;;2.90;99.90;;;;;;5123421;27;19927;-82
2023/01/24 04:19:50;;;;;;;;;;;2.90;99.90;;;;;;5113279;27;19923;-82
2023/01/24 04:22:16;;;;;;;;;;;2.90;99.90;;;;;;5107540;27;19924;-82
2023/01/24 04:24:42;;;;;;;;;;;2.90;99.90;;;;;;5122948;27;19995;-83
2023/01/24 04:27:07;;;;;;;;;;;2.90;99.90;;;;;;5124424;27;19934;-82
2023/01/24 04:29:33;;;;;;;;;;;2.90;99.90;;;;;;5119891;27;19924;-82
2023/01/24 04:31:58;;;;;;;;;;;2.90;99.90;;;;;;5092114;27;19923;-82
2023/01/24 04:34:24;;;;;;;;;;;2.90;99.90;;;;;;5123429;27;20022;-82
2023/01/24 04:36:49;;;;;;;;;;;2.90;99.90;;;;;;5122972;27;20366;-82
2023/01/24 04:39:15;;;;;;;;;;;2.90;99.90;;;;;;5122453;27;19962;-82
2023/01/24 04:41:41;;;;;;;;;;;2.90;99.90;;;;;;5121686;27;19924;-82
2023/01/24 04:44:06;;;;;;;;;;;2.80;99.90;;;;;;5108766;28;19924;-82
2023/01/24 04:46:32;;;;;;;;;;;2.80;99.90;;;;;;5122668;27;19936;-81
2023/01/24 04:48:57;;;;;;;;;;;2.80;99.90;;;;;;5121818;27;19937;-82
2023/01/24 04:51:23;;;;;;;;;;;2.90;99.90;;;;;;5120818;27;19977;-82
2023/01/24 04:53:48;;;;;;;;;;;2.90;99.90;;;;;;5122755;27;19927;-82
2023/01/24 04:56:14;;;;;;;;;;;2.90;99.90;;;;;;5099630;27;19934;-82
2023/01/24 04:58:39;;;;;;;;;;;2.90;99.90;;;;;;5126812;27;20006;-82
2023/01/24 05:01:05;;;;;;;;;;;2.90;99.90;;;;;;5107490;27;19931;-83
2023/01/24 05:03:31;;;;;;;;;;;2.80;99.90;;;;;;5104734;27;19924;-82
2023/01/24 05:05:56;;;;;;;;;;;2.90;99.90;;;;;;5103120;27;19924;-82
2023/01/24 05:08:22;;;;;;;;;;;2.80;99.90;;;;;;5105212;27;19928;-82
2023/01/24 05:10:48;;;;;;;;;;;2.80;99.90;;;;;;5114666;27;19923;-82
2023/01/24 05:13:14;;;;;;;;;;;2.80;99.90;;;;;;5089033;27;19935;-83
2023/01/24 05:15:46;;;;;;;;;;;2.90;99.90;;;;;;5112705;27;19924;-83
2023/01/24 05:18:12;;;;;;;;;;;2.80;99.90;;;;;;5127362;27;19938;-83
2023/01/24 05:20:37;;;;;;;;;;;2.80;99.90;;;;;;5105551;27;19923;-82
2023/01/24 05:23:03;;;;;;;;;;;2.80;99.90;;;;;;5099075;27;19931;-83
2023/01/24 05:25:28;;;;;;;;;;;2.80;99.90;;;;;;5122075;27;19989;-82
2023/01/24 05:27:54;;;;;;;;;;;2.80;99.90;;;;;;5123860;27;20348;-82
2023/01/24 05:30:19;;;;;;;;;;;2.80;99.90;;;;;;5122244;27;19930;-83
2023/01/24 05:32:45;;;;;;;;;;;2.80;99.90;;;;;;5117684;27;19924;-82
2023/01/24 05:35:11;;;;;;;;;;;2.80;99.90;;;;;;5108286;27;19924;-82
2023/01/24 05:37:37;;;;;;;;;;;2.80;99.90;;;;;;5111066;28;19923;-81
2023/01/24 05:40:04;;;;;;;;;;;2.80;99.90;;;;;;5137090;27;19974;-82
2023/01/24 05:42:29;;;;;;;;;;;2.70;99.90;;;;;;5104594;28;19923;-81
2023/01/24 05:44:55;;;;;;;;;;;2.70;99.90;;;;;;5120907;27;19923;-82
2023/01/24 05:47:21;;;;;;;;;;;2.80;99.90;;;;;;5124731;27;19949;-81
2023/01/24 05:49:46;;;;;;;;;;;2.80;99.90;;;;;;5120314;27;19934;-82
2023/01/24 05:52:12;;;;;;;;;;;2.80;99.90;;;;;;5121557;27;20370;-81
2023/01/24 05:54:37;;;;;;;;;;;2.80;99.90;;;;;;5111825;28;19931;-81
2023/01/24 05:57:03;;;;;;;;;;;2.70;99.90;;;;;;5121548;27;19931;-81
2023/01/24 05:59:28;;;;;;;;;;;2.70;99.90;;;;;;5107797;27;19967;-81
2023/01/24 06:01:54;;;;;;;;;;;2.70;99.90;;;;;;5091945;27;20017;-82
2023/01/24 06:04:20;;;;;;;;;;;2.80;99.90;;;;;;5117212;28;19923;-81
2023/01/24 06:06:45;;;;;;;;;;;2.80;99.90;;;;;;5121383;28;19959;-82
2023/01/24 06:09:11;;;;;;;;;;;2.70;99.90;;;;;;5107874;28;19931;-82
2023/01/24 06:11:36;;;;;;;;;;;2.70;99.90;;;;;;5114847;28;19999;-81
2023/01/24 06:14:02;;;;;;;;;;;2.70;99.90;;;;;;5121392;28;19994;-82
2023/01/24 06:16:27;;;;;;;;;;;2.70;99.90;;;;;;5120623;28;19927;-83
2023/01/24 06:18:54;;;;;;;;;;;2.70;99.90;;;;;;5122450;28;19931;-81
2023/01/24 06:21:32;;;;;;;;;;;2.70;99.90;;;;;;5103410;28;19923;-82
2023/01/24 06:23:57;;;;;;;;;;;2.70;99.90;;;;;;5110847;28;19967;-81
2023/01/24 06:26:23;;;;;;;;;;;2.70;99.90;;;;;;5121147;28;19924;-81
2023/01/24 06:28:49;;;;;;;;;;;2.70;99.90;;;;;;5115416;27;19923;-81
2023/01/24 06:31:14;;;;;;;;;;;2.70;99.90;;;;;;5122738;27;19924;-81
2023/01/24 06:34:00;;;;;;;;;;;2.70;99.90;;;;;;5118193;28;19928;-81
2023/01/24 06:36:35;;;;;;;;;;;2.70;99.90;;;;;;5110487;28;20393;-81
2023/01/24 06:39:01;;;;;;;;;;;2.70;99.90;;;;;;5112177;28;19944;-81
2023/01/24 06:41:26;;;;;;;;;;;2.70;99.90;;;;;;5104174;27;19974;-81
2023/01/24 06:43:52;;;;;;;;;;;2.70;99.90;;;;;;5123889;27;19980;-81
2023/01/24 06:46:18;;;;;;;;;;;2.60;99.90;;;;;;5124573;27;19924;-81
2023/01/24 06:48:44;;;;;;;;;;;2.60;99.90;;;;;;5126259;27;19927;-81
2023/01/24 06:51:13;;;;;;;;;;;2.60;99.90;;;;;;5124922;27;19995;-82
2023/01/24 06:53:39;;;;;;;;;;;2.70;99.90;;;;;;5113582;27;19924;-82
2023/01/24 06:56:04;;;;;;;;;;;2.60;99.90;;;;;;5116656;27;19934;-82
2023/01/24 06:58:30;;;;;;;;;;;2.60;99.90;;;;;;5105028;27;19923;-82
2023/01/24 07:00:56;;;;;;;;;;;2.60;99.90;;;;;;5121341;27;19984;-82
2023/01/24 07:03:21;;;;;;;;;;;2.60;99.90;;;;;;5110792;27;19982;-82
2023/01/24 07:05:47;;;;;;;;;;;2.70;99.90;;;;;;5111087;27;19978;-81
2023/01/24 07:08:13;;;;;;;;;;;2.60;99.90;;;;;;5124900;27;19928;-81
2023/01/24 07:10:39;;;;;;;;;;;2.70;99.90;;;;;;5124761;27;19931;-81
2023/01/24 07:13:05;;;;;;;;;;;2.60;99.90;;;;;;5124232;27;20010;-81
2023/01/24 07:15:30;;;;;;;;;;;2.60;99.90;;;;;;5119407;27;19991;-81
2023/01/24 07:17:56;;;;;;;;;;;2.60;99.90;;;;;;5097904;27;19949;-81
2023/01/24 07:20:22;;;;;;;;;;;2.60;99.90;;;;;;5124336;27;19958;-81
2023/01/24 07:22:48;;;;;;;;;;;2.60;99.90;;;;;;5111144;27;19938;-81
2023/01/24 07:25:15;;;;;;;;;;;2.60;99.90;;;;;;5124196;27;19923;-81
2023/01/24 07:27:41;;;;;;;;;;;2.60;99.90;;;;;;5124336;27;20426;-81
2023/01/24 07:30:07;;;;;;;;;;;2.60;99.90;;;;;;5113358;27;19966;-81
2023/01/24 07:32:33;;;;;;;;;;;2.60;99.90;;;;;;5107303;27;19924;-81
2023/01/24 07:34:58;;;;;;;;;;;2.60;99.90;;;;;;5123853;27;19927;-81
2023/01/24 07:37:24;;;;;;;;;;;2.60;99.90;;;;;;5115411;27;19923;-81
2023/01/24 07:39:49;;;;;;;;;;;2.60;99.90;;;;;;5120964;27;19923;-81
2023/01/24 07:42:15;;;;;;;;;;;2.60;99.90;;;;;;5114029;27;19990;-81
2023/01/24 07:44:40;;;;;;;;;;;2.50;99.90;;;;;;5107506;27;19923;-81
2023/01/24 07:47:06;;;;;;;;;;;2.60;99.90;;;;;;5124390;27;19923;-81
2023/01/24 07:49:32;;;;;;;;;;;2.50;99.90;;;;;;5123502;28;19931;-81
2023/01/24 07:51:57;;;;;;;;;;;2.50;99.90;;;;;;5123880;27;19979;-81
2023/01/24 07:54:23;;;;;;;;;;;2.50;99.90;;;;;;5122368;27;19931;-81
2023/01/24 07:56:48;;;;;;;;;;;2.50;99.90;;;;;;5124077;27;19927;-81
2023/01/24 07:59:14;;;;;;;;;;;2.50;99.90;;;;;;5122976;27;19923;-81
2023/01/24 08:01:40;;;;;;;;;;;2.50;99.90;;;;;;5100025;27;19923;-81
2023/01/24 08:04:06;;;;;;;;;;;2.50;99.90;;;;;;5124771;27;19923;-81
2023/01/24 08:06:31;;;;;;;;;;;2.50;99.90;;;;;;5135094;27;19923;-81
2023/01/24 08:08:57;;;;;;;;;;;2.50;99.90;;;;;;5123762;27;19924;-81
2023/01/24 08:11:22;;;;;;;;;;;2.60;99.90;;;;;;5095338;27;19953;-81
2023/01/24 08:13:49;;;;;;;;;;;2.50;99.90;;;;;;5121413;27;20298;-81
2023/01/24 08:16:15;;;;;;;;;;;2.50;99.90;;;;;;5122367;27;19923;-81
2023/01/24 08:18:41;;;;;;;;;;;2.50;99.90;;;;;;5125507;27;19924;-81
2023/01/24 08:21:07;;;;;;;;;;;2.50;99.90;;;;;;5109182;27;19934;-81
2023/01/24 08:23:33;;;;;;;;;;;2.50;99.90;;;;;;5101135;27;19923;-81
2023/01/24 08:26:02;;;;;;;;;;;2.50;99.90;;;;;;5119566;27;19932;-81
2023/01/24 08:28:29;;;;;;;;;;;2.60;99.90;;;;;;5121891;27;19923;-81
2023/01/24 08:30:56;;;;;;;;;;;2.60;99.90;;;;;;5124253;27;19924;-81
2023/01/24 08:33:22;;;;;;;;;;;2.60;99.90;;;;;;5105087;27;19959;-81
2023/01/24 08:35:48;;;;;;;;;;;2.60;99.90;;;;;;5124039;27;19923;-81
2023/01/24 08:38:14;;;;;;;;;;;2.50;99.90;;;;;;5118551;28;19981;-81
2023/01/24 08:40:40;;;;;;;;;;;2.50;99.90;;;;;;5112436;28;19924;-81
2023/01/24 08:43:06;;;;;;;;;;;2.50;99.90;;;;;;5118701;27;19930;-81
2023/01/24 08:45:31;;;;;;;;;;;2.60;99.90;;;;;;5141453;27;20009;-81
2023/01/24 08:47:57;;;;;;;;;;;2.60;99.90;;;;;;5122193;27;19923;-81
2023/01/24 08:50:22;;;;;;;;;;;2.60;99.90;;;;;;5104313;27;19938;-81
2023/01/24 08:52:48;;;;;;;;;;;2.60;99.90;;;;;;5122785;27;19924;-81
2023/01/24 08:55:14;;;;;;;;;;;2.60;99.90;;;;;;5094550;27;20006;-81
2023/01/24 08:57:39;;;;;;;;;;;2.60;99.90;;;;;;5105591;27;20043;-81
2023/01/24 09:00:05;;;;;;;;;;;2.60;99.90;;;;;;5118724;27;19983;-81
2023/01/24 09:02:32;;;;;;;;;;;2.60;99.90;;;;;;5126599;27;19923;-81
2023/01/24 09:04:58;;;;;;;;;;;2.60;99.90;;;;;;5118309;27;19951;-81
2023/01/24 09:07:24;;;;;;;;;;;2.60;99.90;;;;;;5105125;27;19923;-81
2023/01/24 09:09:49;;;;;;;;;;;2.70;99.90;;;;;;5123042;27;19923;-81
2023/01/24 09:12:15;;;;;;;;;;;2.60;99.90;;;;;;5140542;27;19986;-81
2023/01/24 09:14:41;;;;;;;;;;;2.60;99.90;;;;;;5101801;27;19930;-82
2023/01/24 09:17:06;;;;;;;;;;;2.60;99.90;;;;;;5118608;27;19962;-81
2023/01/24 09:19:32;;;;;;;;;;;2.60;99.90;;;;;;5120827;27;19927;-81
2023/01/24 09:21:57;;;;;;;;;;;2.60;99.90;;;;;;5115505;28;20088;-81
2023/01/24 09:24:23;;;;;;;;;;;2.60;99.90;;;;;;5136851;27;19925;-81
2023/01/24 09:26:49;;;;;;;;;;;2.60;99.90;;;;;;5116560;27;19923;-81
2023/01/24 09:29:14;;;;;;;;;;;2.60;99.90;;;;;;5115074;27;19949;-80
2023/01/24 09:31:40;;;;;;;;;;;2.60;99.90;;;;;;5105427;27;19930;-81
2023/01/24 09:34:06;;;;;;;;;;;2.60;99.90;;;;;;5120204;27;19931;-81
2023/01/24 09:36:31;;;;;;;;;;;2.60;99.90;;;;;;5096338;27;19931;-81
2023/01/24 09:38:57;;;;;;;;;;;2.60;99.90;;;;;;5119117;27;20236;-80
2023/01/24 09:41:37;;;;;;;;;;;2.60;99.90;;;;;;5091669;27;20787;-81
2023/01/24 09:44:07;;;;;;;;;;;2.50;99.90;;;;;;5093390;28;19934;-81
2023/01/24 09:46:38;;;;;;;;;;;2.50;99.90;;;;;;5116559;27;19985;-81
2023/01/24 09:49:13;;;;;;;;;;;2.50;99.90;;;;;;5099270;28;19924;-81
2023/01/24 09:51:44;;;;;;;;;;;2.50;99.90;;;;;;5113937;27;19934;-81
2023/01/24 09:54:15;;;;;;;;;;;2.50;99.90;;;;;;5119917;27;19930;-81
2023/01/24 09:56:45;;;;;;;;;;;2.50;99.90;;;;;;5141173;27;19923;-80
2023/01/24 09:59:11;;;;;;;;;;;2.60;99.90;;;;;;5118984;28;19924;-81
2023/01/24 10:01:38;;;;;;;;;;;2.60;99.90;;;;;;5111302;28;19930;-81
2023/01/24 10:04:07;;;;;;;;;;;2.60;99.90;;;;;;5118007;27;20014;-81
2023/01/24 10:06:33;;;;;;;;;;;2.60;99.90;;;;;;5121923;27;19928;-81
2023/01/24 10:09:15;;;;;;;;;;;2.60;99.90;;;;;;5121027;28;19935;-81
2023/01/24 10:12:00;;;;;;;;;;;2.60;99.90;;;;;;5112388;28;19927;-81
2023/01/24 10:14:46;;;;;;;;;;;2.70;99.90;;;;;;5103131;28;19969;-81
2023/01/24 10:17:21;;;;;;;;;;;2.60;99.90;;;;;;5099373;28;19928;-82
2023/01/24 10:19:56;;;;;;;;;;;2.70;99.90;;;;;;5095711;27;20056;-81
2023/01/24 10:22:33;;;;;;;;;;;2.70;99.90;;;;;;5125840;27;20025;-81
2023/01/24 10:25:05;;;;;;;;;;;2.70;99.90;;;;;;5112001;27;19928;-81
2023/01/24 10:27:41;;;;;;;;;;;2.70;99.90;;;;;;5124841;27;19928;-81
2023/01/24 10:30:19;;;;;;;;;;;2.70;99.90;;;;;;5104611;28;19982;-81
2023/01/24 10:32:47;;;;;;;;;;;2.70;99.90;;;;;;5099909;27;19923;-81
2023/01/24 10:35:19;;;;;;;;;;;2.70;99.90;;;;;;5106249;28;19931;-81
2023/01/24 10:37:48;;;;;;;;;;;2.80;99.90;;;;;;5102702;27;19975;-81
2023/01/24 10:40:14;;;;;;;;;;;2.80;99.90;;;;;;5125245;27;19923;-80
2023/01/24 10:42:40;;;;;;;;;;;2.80;99.90;;;;;;5123337;27;20076;-80
2023/01/24 10:45:21;;;;;;;;;;;2.80;99.90;;;;;;5095579;27;19927;-81
2023/01/24 10:47:50;;;;;;;;;;;2.80;99.90;;;;;;5126035;27;20138;-80
2023/01/24 10:50:17;;;;;;;;;;;2.80;99.90;;;;;;5124624;27;19972;-80
2023/01/24 10:52:43;;;;;;;;;;;2.80;99.90;;;;;;5125931;27;19931;-80
2023/01/24 10:55:27;;;;;;;;;;;2.80;99.90;;;;;;5124514;27;19934;-80
2023/01/24 10:57:53;;;;;;;;;;;2.80;99.90;;;;;;5116110;27;19927;-81
2023/01/24 11:00:27;;;;;;;;;;;2.80;99.90;;;;;;5144035;27;20022;-80
2023/01/24 11:02:54;;;;;;;;;;;2.80;99.90;;;;;;5142392;27;19932;-80
2023/01/24 11:05:20;;;;;;;;;;;2.80;99.90;;;;;;5126107;27;19924;-80
2023/01/24 11:07:54;;;;;;;;;;;2.80;99.90;;;;;;5123311;27;20354;-80
2023/01/24 11:10:27;;;;;;;;;;;2.80;99.90;;;;;;5123299;27;19934;-80
2023/01/24 11:12:59;;;;;;;;;;;2.80;99.90;;;;;;5118946;28;19934;-80
2023/01/24 11:15:28;;;;;;;;;;;2.80;99.90;;;;;;5110090;27;19927;-81
2023/01/24 11:17:56;;;;;;;;;;;2.70;99.90;;;;;;5122430;27;19980;-80
2023/01/24 11:20:29;;;;;;;;;;;2.70;99.90;;;;;;5101730;27;19923;-80
2023/01/24 11:23:05;;;;;;;;;;;2.70;99.90;;;;;;5142986;27;20008;-80
2023/01/24 11:25:31;;;;;;;;;;;2.70;99.90;;;;;;5124217;27;19984;-80
2023/01/24 11:27:56;;;;;;;;;;;2.70;99.90;;;;;;5143061;27;20327;-81
2023/01/24 11:30:22;;;;;;;;;;;2.70;99.90;;;;;;5143744;27;20472;-80
2023/01/24 11:32:57;;;;;;;;;;;2.70;99.90;;;;;;5124215;27;19923;-80
2023/01/24 11:35:24;;;;;;;;;;;2.70;99.90;;;;;;5114032;27;19935;-80
2023/01/24 11:38:02;;;;;;;;;;;2.70;99.90;;;;;;5120040;27;19923;-80
2023/01/24 11:40:30;;;;;;;;;;;2.70;99.90;;;;;;5106549;27;19945;-80
2023/01/24 11:42:59;;;;;;;;;;;2.80;99.90;;;;;;5117418;27;20042;-80
2023/01/24 11:45:34;;;;;;;;;;;2.80;99.90;;;;;;5115780;27;20006;-80
2023/01/24 11:48:06;;;;;;;;;;;2.80;99.90;;;;;;5123473;27;20518;-80
2023/01/24 11:50:40;;;;;;;;;;;2.80;99.90;;;;;;5121948;27;19978;-81
2023/01/24 11:53:26;;;;;;;;;;;2.80;99.90;;;;;;5093336;27;19960;-79
2023/01/24 11:55:57;;;;;;;;;;;2.90;99.90;;;;;;5119666;27;19923;-80
2023/01/24 11:58:29;;;;;;;;;;;2.80;99.90;;;;;;5104907;27;19948;-80
2023/01/24 12:01:05;;;;;;;;;;;2.80;99.90;;;;;;5124016;27;19936;-80
2023/01/24 12:03:31;;;;;;;;;;;2.90;99.90;;;;;;5115299;27;19949;-80
2023/01/24 12:06:15;;;;;;;;;;;2.90;99.90;;;;;;5120650;27;19923;-80
2023/01/24 12:08:44;;;;;;;;;;;2.80;99.90;;;;;;5108380;27;19930;-80
2023/01/24 12:11:28;;;;;;;;;;;2.90;99.90;;;;;;5122043;27;19944;-80
2023/01/24 12:14:19;;;;;;;;;;;2.80;99.90;;;;;;5097325;27;20014;-80
2023/01/24 12:16:52;;;;;;;;;;;2.80;99.90;;;;;;5113796;28;19994;-81
2023/01/24 12:19:44;;;;;;;;;;;2.80;99.90;;;;;;5118473;27;20525;-80
2023/01/24 12:22:12;;;;;;;;;;;2.80;99.90;;;;;;5120006;27;19923;-81
2023/01/24 12:24:41;;;;;;;;;;;2.80;99.90;;;;;;5111966;27;20053;-80
2023/01/24 12:27:13;;;;;;;;;;;2.80;99.90;;;;;;5103293;27;19963;-80
2023/01/24 12:29:40;;;;;;;;;;;2.80;99.90;;;;;;5104801;27;19967;-81
2023/01/24 12:32:17;;;;;;;;;;;2.80;99.90;;;;;;5106699;27;19934;-80
2023/01/24 12:34:50;;;;;;;;;;;2.80;99.90;;;;;;5122414;27;19934;-80
2023/01/24 12:37:19;;;;;;;;;;;2.70;99.90;;;;;;5119579;27;19930;-80
2023/01/24 12:39:56;;;;;;;;;;;2.70;99.90;;;;;;5119149;27;19924;-80
2023/01/24 12:42:28;;;;;;;;;;;2.70;99.90;;;;;;5117815;27;20290;-80
2023/01/24 12:44:59;;;;;;;;;;;2.70;99.90;;;;;;5122513;27;20348;-81
2023/01/24 12:47:25;;;;;;;;;;;2.70;99.90;;;;;;5113877;28;19931;-80
2023/01/24 12:50:01;;;;;;;;;;;2.70;99.90;;;;;;5120750;27;19924;-80
2023/01/24 12:52:42;;;;;;;;;;;2.80;99.90;;;;;;5114694;28;19988;-80
2023/01/24 12:55:16;;;;;;;;;;;2.80;99.90;;;;;;5121127;27;19935;-80
2023/01/24 12:57:41;;;;;;;;;;;2.80;99.90;;;;;;5116181;28;19924;-80
2023/01/24 13:00:21;;;;;;;;;;;2.80;99.90;;;;;;5106247;27;20116;-80
2023/01/24 13:02:49;;;;;;;;;;;2.80;99.90;;;;;;5121319;27;19924;-80
2023/01/24 13:05:50;;;;;;;;;;;2.80;99.90;;;;;;5115762;27;19931;-80
2023/01/24 13:08:16;;;;;;;;;;;2.80;99.90;;;;;;5018522;28;19960;-80
2023/01/24 13:10:48;;;;;;;;;;;2.80;99.90;;;;;;5098181;27;19927;-80
2023/01/24 13:13:19;;;;;;;;;;;2.80;99.90;;;;;;5098545;27;19928;-80
2023/01/24 13:15:46;;;;;;;;;;;2.80;99.90;;;;;;5120568;27;19995;-80
2023/01/24 13:18:19;;;;;;;;;;;2.80;99.90;;;;;;5116279;27;19987;-80
2023/01/24 13:20:57;;;;;;;;;;;2.70;99.90;;;;;;5104603;27;19991;-80
2023/01/24 13:23:27;;;;;;;;;;;2.70;99.90;;;;;;5098427;27;19952;-80
2023/01/24 13:26:12;;;;;;;;;;;2.70;99.90;;;;;;5119654;27;19927;-80
2023/01/24 13:28:41;;;;;;;;;;;2.70;99.90;;;;;;5111130;27;19955;-80
2023/01/24 13:31:25;;;;;;;;;;;2.60;99.90;;;;;;5120910;27;19961;-80
2023/01/24 13:33:55;;;;;;;;;;;2.60;99.90;;;;;;5116984;27;19924;-80
2023/01/24 13:36:22;;;;;;;;;;;2.60;99.90;;;;;;5121504;27;19966;-80
2023/01/24 13:38:48;;;;;;;;;;;2.70;99.90;;;;;;5098508;28;19926;-80
2023/01/24 13:41:31;;;;;;;;;;;2.70;99.90;;;;;;5115736;27;19978;-80
2023/01/24 13:43:57;;;;;;;;;;;2.60;99.90;;;;;;5102002;27;19927;-80
2023/01/24 13:46:41;;;;;;;;;;;2.60;99.90;;;;;;5120655;27;19927;-80
2023/01/24 13:49:17;;;;;;;;;;;2.60;99.90;;;;;;5116194;28;20079;-80
2023/01/24 13:51:44;;;;;;;;;;;2.60;99.90;;;;;;5115342;27;19970;-80
2023/01/24 13:54:12;;;;;;;;;;;2.60;99.90;;;;;;5095654;27;20018;-79
2023/01/24 13:57:06;;;;;;;;;;;2.60;99.90;;;;;;5118479;27;19935;-80
2023/01/24 13:59:34;;;;;;;;;;;2.60;99.90;;;;;;5102087;27;19957;-79
2023/01/24 14:02:00;;;;;;;;;;;2.60;99.90;;;;;;5140144;27;19935;-80
2023/01/24 14:04:42;;;;;;;;;;;2.60;99.90;;;;;;5118339;28;19928;-80
2023/01/24 14:07:27;;;;;;;;;;;2.60;99.90;;;;;;5115904;27;19928;-80
2023/01/24 14:10:00;;;;;;;;;;;2.60;99.90;;;;;;5108420;28;20410;-79
2023/01/24 14:12:25;;;;;;;;;;;2.50;99.90;;;;;;5110844;28;20294;-80
2023/01/24 14:14:58;;;;;;;;;;;2.50;99.90;;;;;;5103749;27;19931;-80
2023/01/24 14:17:48;;;;;;;;;;;2.50;99.90;;;;;;5117288;28;19997;-80
2023/01/24 14:20:28;;;;;;;;;;;2.50;99.90;;;;;;5110214;28;19931;-80
2023/01/24 14:22:57;;;;;;;;;;;2.50;99.90;;;;;;5122152;28;19924;-80
2023/01/24 14:25:29;;;;;;;;;;;2.50;99.90;;;;;;5109461;28;19935;-80
2023/01/24 14:28:17;;;;;;;;;;;2.50;99.90;;;;;;5114577;28;19938;-80
2023/01/24 14:30:48;;;;;;;;;;;2.40;99.90;;;;;;5107676;28;19946;-80
2023/01/24 14:33:27;;;;;;;;;;;2.40;99.90;;;;;;5117915;28;19945;-80
2023/01/24 14:36:06;;;;;;;;;;;2.40;99.90;;;;;;5135619;28;20000;-80
2023/01/24 14:38:31;;;;;;;;;;;2.40;99.90;;;;;;5119089;28;19931;-80
2023/01/24 14:40:58;;;;;;;;;;;2.40;99.90;;;;;;5114092;28;19923;-80
2023/01/24 14:43:35;;;;;;;;;;;2.40;99.90;;;;;;5119362;28;19924;-80
2023/01/24 14:46:24;;;;;;;;;;;2.40;99.90;;;;;;5097624;28;19930;-80
2023/01/24 14:48:50;;;;;;;;;;;2.40;99.90;;;;;;5102525;28;19928;-80
2023/01/24 14:51:18;;;;;;;;;;;2.40;99.90;;;;;;5113938;28;19927;-80
2023/01/24 14:53:48;;;;;;;;;;;2.40;99.90;;;;;;5118672;28;19938;-80
2023/01/24 14:56:14;;;;;;;;;;;2.40;99.90;;;;;;5118341;28;19955;-80
2023/01/24 14:58:40;;;;;;;;;;;2.40;99.90;;;;;;5116367;28;19923;-80
2023/01/24 15:01:21;;;;;;;;;;;2.40;99.90;;;;;;5120835;28;19968;-80
2023/01/24 15:03:47;;;;;;;;;;;2.40;99.90;;;;;;5135904;27;19944;-80
2023/01/24 15:06:17;;;;;;;;;;;2.50;99.90;;;;;;5108558;27;19931;-80
2023/01/24 15:08:44;;;;;;;;;;;2.40;99.90;;;;;;5115276;27;19931;-80
2023/01/24 15:11:20;;;;;;;;;;;2.40;99.90;;;;;;5123506;27;19923;-80
2023/01/24 15:13:51;;;;;;;;;;;2.40;99.90;;;;;;5113226;28;19967;-80
2023/01/24 15:16:19;;;;;;;;;;;2.30;99.90;;;;;;5140098;27;20010;-80